Mukayris, Yemen
Current Conditions -  °F | °C
As of 4:00 PM on Monday 20 Oct 2014 (Local Time) from OYAA Reporting Station
Few Clouds Few Clouds  
Wind Chill: 88°   Ceiling: Unl
Heat Index: 88°   Visibility: 6mi
Dew Point: 57°   Wind: 14mph
Humidity: 35%   Direction: 150°SSE
Pressure: 29.8"   Gusts: NA
Location:  13.94°N, 45.67°E
Report Text: OYAA 201300Z 15012KT 9999 FEW020 31/14 Q1009
Loading
Personal Weather Stations






























Interactive Weather Map
Tropical Storm Tracking
New forecast layout! Learn more

10-Day Weather Forecast

Advertisements
Track Severe Weather on mobile